createdAt,value
2017-06-26T00:00:26.817Z,54.90
2017-06-26T00:03:04.713Z,54.90
2017-06-26T00:05:33.293Z,54.90
2017-06-26T00:08:05.109Z,55.00
2017-06-26T00:10:32.617Z,54.90
2017-06-26T00:13:00.886Z,55.20
2017-06-26T00:15:35.288Z,55.30
2017-06-26T00:18:03.065Z,55.30
2017-06-26T00:20:30.632Z,55.40
2017-06-26T00:22:58.928Z,55.60
2017-06-26T00:25:26.412Z,55.60
2017-06-26T00:27:53.942Z,55.70
2017-06-26T00:30:21.413Z,55.80
2017-06-26T00:32:49.269Z,56.20
2017-06-26T00:35:16.813Z,56.50
2017-06-26T00:37:44.809Z,56.50
2017-06-26T00:40:12.341Z,56.40
2017-06-26T00:42:39.812Z,56.40
2017-06-26T00:45:15.565Z,57.30
2017-06-26T00:47:46.229Z,56.80
2017-06-26T00:50:14.840Z,56.90
2017-06-26T00:52:42.629Z,57.20
2017-06-26T00:55:10.921Z,57.40
2017-06-26T00:57:38.396Z,57.20
2017-06-26T01:00:16.169Z,57.40
2017-06-26T01:02:44.414Z,57.50
2017-06-26T01:05:11.881Z,57.40
2017-06-26T01:07:45.621Z,57.40
2017-06-26T01:10:16.293Z,57.60
2017-06-26T01:12:44.100Z,57.60
2017-06-26T01:15:15.409Z,57.70
2017-06-26T01:17:42.880Z,57.50
2017-06-26T01:20:16.327Z,57.60
2017-06-26T01:22:43.821Z,57.80
2017-06-26T01:25:11.561Z,57.90
2017-06-26T01:27:45.029Z,58.20
2017-06-26T01:30:16.018Z,58.20
2017-06-26T01:32:45.297Z,58.30
2017-06-26T01:35:15.898Z,58.50
2017-06-26T01:37:44.425Z,58.80
2017-06-26T01:40:11.912Z,58.70
2017-06-26T01:42:39.397Z,58.90
2017-06-26T01:45:15.096Z,59.20
2017-06-26T01:47:42.577Z,59.10
2017-06-26T01:50:16.729Z,59.30
2017-06-26T01:52:44.223Z,59.20
2017-06-26T01:55:14.958Z,59.20
2017-06-26T01:57:45.619Z,59.20
2017-06-26T02:00:13.090Z,59.30
2017-06-26T02:02:47.004Z,59.30
2017-06-26T02:05:15.241Z,59.70
2017-06-26T02:07:46.536Z,59.20
2017-06-26T02:10:14.777Z,59.20
2017-06-26T02:12:42.244Z,59.10
2017-06-26T02:15:15.625Z,59.30
2017-06-26T02:17:43.120Z,59.40
2017-06-26T02:20:11.705Z,59.50
2017-06-26T02:22:45.253Z,59.40
2017-06-26T02:25:16.387Z,59.50
2017-06-26T02:27:43.919Z,59.50
2017-06-26T02:30:11.397Z,59.50
2017-06-26T02:32:38.929Z,59.50
2017-06-26T02:35:07.209Z,59.60
2017-06-26T02:37:35.076Z,59.60
2017-06-26T02:40:04.818Z,59.50
2017-06-26T02:42:32.305Z,59.50
2017-06-26T02:45:00.313Z,59.60
2017-06-26T02:47:28.585Z,59.70
2017-06-26T02:49:56.868Z,59.90
2017-06-26T02:52:24.629Z,59.80
2017-06-26T02:54:55.941Z,60.10
2017-06-26T02:57:23.425Z,60.10
2017-06-26T02:59:56.932Z,60.10
2017-06-26T03:02:35.561Z,60.40
2017-06-26T03:05:04.139Z,60.50
2017-06-26T03:07:32.385Z,60.40
2017-06-26T03:10:06.480Z,60.40
2017-06-26T03:12:33.950Z,60.70
2017-06-26T03:15:01.446Z,60.70
2017-06-26T03:17:29.718Z,60.90
2017-06-26T03:20:04.462Z,61.00
2017-06-26T03:22:35.280Z,60.90
2017-06-26T03:25:06.645Z,61.10
2017-06-26T03:27:35.433Z,61.20
2017-06-26T03:30:02.977Z,61.40
2017-06-26T03:32:37.393Z,61.70
2017-06-26T03:35:04.957Z,61.50
2017-06-26T03:37:33.237Z,61.70
2017-06-26T03:40:00.998Z,61.70
2017-06-26T03:42:34.601Z,61.80
2017-06-26T03:45:02.373Z,61.90
2017-06-26T03:47:29.845Z,62.20
2017-06-26T03:50:04.610Z,62.40
2017-06-26T03:52:35.241Z,62.40
2017-06-26T03:55:06.027Z,62.60
2017-06-26T03:57:35.256Z,62.80
2017-06-26T04:00:02.732Z,62.90
2017-06-26T04:02:30.222Z,63.10
2017-06-26T04:05:04.941Z,63.20
2017-06-26T04:07:36.129Z,63.30
2017-06-26T04:10:03.626Z,63.50
2017-06-26T04:12:31.096Z,63.80
2017-06-26T04:14:58.586Z,64.10
2017-06-26T04:17:26.066Z,64.30
2017-06-26T04:19:55.256Z,64.40
2017-06-26T04:22:22.720Z,64.50
2017-06-26T04:24:50.198Z,64.70
2017-06-26T04:27:18.009Z,64.90
2017-06-26T04:29:45.477Z,65.30
2017-06-26T04:32:12.954Z,65.60
2017-06-26T04:34:40.729Z,65.70
2017-06-26T04:37:14.817Z,65.90
2017-06-26T04:39:46.986Z,65.60
2017-06-26T04:42:14.461Z,65.60
2017-06-26T04:44:41.953Z,65.00
2017-06-26T04:47:15.121Z,65.60
2017-06-26T04:49:45.874Z,65.70
2017-06-26T04:52:16.560Z,65.40
2017-06-26T04:54:44.025Z,65.30
2017-06-26T04:57:15.350Z,65.10
2017-06-26T04:59:45.857Z,65.30
2017-06-26T05:02:16.349Z,65.20
2017-06-26T05:04:45.315Z,65.10
2017-06-26T05:07:13.562Z,65.10
2017-06-26T05:09:41.045Z,65.00
2017-06-26T05:12:14.420Z,65.00
2017-06-26T05:14:42.010Z,65.00
2017-06-26T05:17:10.610Z,64.50
2017-06-26T05:19:38.093Z,65.20
2017-06-26T05:22:05.560Z,63.80
2017-06-26T05:24:36.553Z,63.70
2017-06-26T05:27:04.101Z,63.90
2017-06-26T05:29:32.689Z,63.50
2017-06-26T05:32:00.169Z,63.40
2017-06-26T05:34:27.712Z,63.30
2017-06-26T05:36:55.969Z,62.90
2017-06-26T05:39:26.440Z,62.80
2017-06-26T05:41:55.300Z,62.70
2017-06-26T05:44:22.772Z,62.10
2017-06-26T05:46:56.209Z,61.70
2017-06-26T05:49:23.712Z,61.50
2017-06-26T05:51:57.517Z,61.40
2017-06-26T05:54:25.766Z,60.30
2017-06-26T05:56:53.240Z,60.20
2017-06-26T05:59:20.733Z,60.10
2017-06-26T06:01:48.210Z,59.70
2017-06-26T06:04:15.962Z,59.60
2017-06-26T06:06:46.378Z,59.00
2017-06-26T06:09:13.861Z,58.40
2017-06-26T06:11:41.613Z,58.20
2017-06-26T06:14:15.291Z,58.10
2017-06-26T06:16:43.043Z,57.90
2017-06-26T06:19:11.289Z,58.00
2017-06-26T06:21:38.787Z,57.40
2017-06-26T06:24:06.274Z,57.60
2017-06-26T06:26:34.669Z,57.60
2017-06-26T06:29:02.413Z,57.40
2017-06-26T06:31:35.724Z,57.10
2017-06-26T06:34:05.022Z,57.00
2017-06-26T06:36:36.269Z,56.50
2017-06-26T06:39:03.762Z,55.50
2017-06-26T06:41:31.244Z,55.30
2017-06-26T06:43:59.485Z,55.50
2017-06-26T06:46:27.317Z,55.40
2017-06-26T06:49:05.107Z,55.60
2017-06-26T06:51:36.455Z,55.60
2017-06-26T06:54:04.015Z,56.00
2017-06-26T06:56:31.581Z,55.70
2017-06-26T06:59:05.686Z,55.60
2017-06-26T07:01:33.195Z,55.50
2017-06-26T07:04:01.010Z,55.10
2017-06-26T07:06:34.463Z,55.30
2017-06-26T07:09:02.270Z,55.10
2017-06-26T07:11:29.741Z,55.00
2017-06-26T07:13:57.229Z,54.90
2017-06-26T07:16:25.271Z,54.70
2017-06-26T07:18:52.757Z,54.50
2017-06-26T07:21:26.876Z,54.20
2017-06-26T07:23:54.626Z,53.90
2017-06-26T07:26:22.100Z,53.50
2017-06-26T07:28:55.413Z,53.00
2017-06-26T07:31:23.386Z,52.50
2017-06-26T07:33:51.182Z,53.00
2017-06-26T07:36:25.307Z,53.10
2017-06-26T07:38:53.239Z,52.60
2017-06-26T07:41:20.861Z,52.50
2017-06-26T07:43:54.678Z,51.60
2017-06-26T07:46:25.293Z,50.90
2017-06-26T07:48:52.796Z,50.70
2017-06-26T07:51:20.584Z,49.90
2017-06-26T07:53:55.294Z,49.80
2017-06-26T07:56:23.841Z,50.00
2017-06-26T07:58:54.969Z,49.90
2017-06-26T08:01:25.833Z,49.50
2017-06-26T08:03:53.312Z,47.90
2017-06-26T08:06:20.803Z,47.80
2017-06-26T08:08:48.306Z,48.30
2017-06-26T08:11:25.436Z,47.80
2017-06-26T08:13:53.194Z,47.70
2017-06-26T08:16:24.862Z,46.50
2017-06-26T08:18:52.345Z,46.50
2017-06-26T08:21:20.178Z,46.50
2017-06-26T08:23:54.701Z,46.40
2017-06-26T08:26:26.874Z,46.30
2017-06-26T08:29:05.000Z,46.30
2017-06-26T08:31:32.846Z,46.20
2017-06-26T08:34:06.240Z,46.70
2017-06-26T08:36:35.654Z,45.80
2017-06-26T08:39:04.953Z,46.30
2017-06-26T08:41:35.816Z,46.50
2017-06-26T08:44:03.306Z,46.00
2017-06-26T08:46:37.178Z,46.10
2017-06-26T08:49:04.666Z,46.00
2017-06-26T08:51:32.144Z,44.90
2017-06-26T08:54:05.973Z,44.80
2017-06-26T08:56:33.532Z,44.50
2017-06-26T08:59:01.291Z,44.60
2017-06-26T09:01:36.117Z,44.10
2017-06-26T09:04:03.883Z,44.00
2017-06-26T09:06:31.401Z,44.20
2017-06-26T09:08:58.887Z,43.90
2017-06-26T09:11:34.897Z,44.00
2017-06-26T09:14:05.732Z,43.90
2017-06-26T09:16:33.499Z,44.00
2017-06-26T09:19:06.851Z,43.60
2017-06-26T09:21:35.378Z,43.10
2017-06-26T09:24:02.861Z,43.00
2017-06-26T09:26:30.337Z,43.10
2017-06-26T09:28:57.834Z,42.50
2017-06-26T09:31:25.310Z,41.30
2017-06-26T09:33:56.678Z,41.50
2017-06-26T09:36:24.153Z,41.20
2017-06-26T09:38:51.630Z,41.10
2017-06-26T09:41:25.090Z,41.30
2017-06-26T09:43:55.892Z,41.60
2017-06-26T09:46:26.727Z,40.80
2017-06-26T09:48:54.953Z,40.90
2017-06-26T09:51:25.574Z,41.10
2017-06-26T09:53:53.067Z,40.60
2017-06-26T09:56:21.318Z,39.80
2017-06-26T09:58:49.118Z,39.70
2017-06-26T10:01:24.650Z,40.10
2017-06-26T10:03:56.988Z,40.00
2017-06-26T10:06:24.471Z,39.90
2017-06-26T10:08:55.057Z,38.90
2017-06-26T10:11:22.538Z,38.40
2017-06-26T10:13:50.017Z,38.50
2017-06-26T10:16:24.930Z,38.10
2017-06-26T10:18:52.414Z,38.10
2017-06-26T10:21:19.902Z,38.00
2017-06-26T10:23:54.584Z,37.40
2017-06-26T10:26:25.504Z,36.00
2017-06-26T10:28:56.408Z,34.50
2017-06-26T10:31:23.909Z,34.40
2017-06-26T10:33:51.384Z,34.00
2017-06-26T10:36:18.892Z,34.40
2017-06-26T10:38:56.223Z,33.70
2017-06-26T10:41:25.302Z,33.00
2017-06-26T10:43:52.890Z,32.20
2017-06-26T10:46:26.340Z,31.90
2017-06-26T10:48:53.821Z,31.10
2017-06-26T10:51:21.377Z,31.10
2017-06-26T10:53:55.017Z,30.70
2017-06-26T10:56:23.307Z,31.10
2017-06-26T10:58:51.165Z,31.00
2017-06-26T11:01:19.411Z,29.50
2017-06-26T11:03:46.885Z,29.40
2017-06-26T11:06:14.401Z,29.00
2017-06-26T11:08:41.882Z,28.70
2017-06-26T11:11:16.058Z,28.60
2017-06-26T11:13:43.546Z,27.50
2017-06-26T11:16:11.066Z,27.50
2017-06-26T11:18:38.954Z,27.10
2017-06-26T11:21:06.454Z,26.80
2017-06-26T11:23:35.267Z,26.50
2017-06-26T11:26:05.221Z,26.30
2017-06-26T11:28:32.772Z,26.30
2017-06-26T11:31:00.517Z,26.20
2017-06-26T11:33:28.006Z,25.60
2017-06-26T11:36:05.562Z,25.60
2017-06-26T11:38:36.135Z,25.20
2017-06-26T11:41:03.662Z,25.40
2017-06-26T11:43:31.158Z,25.00
2017-06-26T11:46:04.843Z,24.60
2017-06-26T11:48:32.602Z,24.30
2017-06-26T11:51:00.093Z,24.70
2017-06-26T11:53:34.982Z,24.60
2017-06-26T11:56:05.471Z,24.30
2017-06-26T11:58:32.961Z,24.30
2017-06-26T12:01:06.501Z,24.30
2017-06-26T12:03:34.013Z,24.40
2017-06-26T12:06:01.803Z,24.90
2017-06-26T12:08:29.289Z,24.50
2017-06-26T12:11:04.983Z,24.30
2017-06-26T12:13:36.472Z,24.70
2017-06-26T12:16:03.945Z,24.60
2017-06-26T12:18:31.440Z,24.30
2017-06-26T12:21:04.861Z,24.00
2017-06-26T12:23:32.626Z,24.30
2017-06-26T12:26:00.117Z,24.30
2017-06-26T12:28:34.998Z,23.90
2017-06-26T12:31:03.242Z,22.70
2017-06-26T12:33:30.717Z,23.20
2017-06-26T12:35:58.202Z,23.30
2017-06-26T12:38:25.683Z,23.90
2017-06-26T12:40:55.366Z,23.50
2017-06-26T12:43:26.633Z,22.70
2017-06-26T12:45:54.119Z,22.80
2017-06-26T12:48:25.433Z,22.60
2017-06-26T12:50:52.910Z,22.20
2017-06-26T12:53:20.389Z,22.20
2017-06-26T12:55:54.822Z,21.80
2017-06-26T12:58:22.303Z,21.90
2017-06-26T13:00:49.774Z,22.20
2017-06-26T13:03:17.290Z,22.60
2017-06-26T13:05:55.011Z,22.20
2017-06-26T13:08:23.610Z,21.90
2017-06-26T13:10:54.731Z,21.80
2017-06-26T13:13:22.205Z,21.60
2017-06-26T13:15:55.666Z,21.80
2017-06-26T13:18:26.575Z,21.60
2017-06-26T13:20:55.239Z,21.60
2017-06-26T13:23:22.714Z,21.90
2017-06-26T13:25:50.545Z,21.80
2017-06-26T13:28:24.618Z,21.50
2017-06-26T13:30:55.823Z,21.50
2017-06-26T13:33:25.119Z,21.60
2017-06-26T13:35:56.259Z,22.00
2017-06-26T13:38:24.496Z,22.00
2017-06-26T13:40:51.975Z,21.90
2017-06-26T13:43:26.589Z,22.50
2017-06-26T13:45:54.064Z,22.20
2017-06-26T13:48:22.655Z,22.00
2017-06-26T13:50:50.898Z,22.30
2017-06-26T13:53:18.383Z,22.20
2017-06-26T13:55:45.870Z,21.80
2017-06-26T13:58:13.390Z,22.00
2017-06-26T14:00:41.994Z,22.00
2017-06-26T14:03:09.472Z,22.30
2017-06-26T14:05:36.988Z,22.80
2017-06-26T14:08:04.469Z,22.70
2017-06-26T14:10:32.736Z,23.00
2017-06-26T14:13:00.505Z,23.00
2017-06-26T14:15:34.964Z,22.70
2017-06-26T14:18:06.186Z,22.90
2017-06-26T14:20:33.710Z,23.40
2017-06-26T14:23:01.203Z,24.00
2017-06-26T14:25:29.068Z,24.40
2017-06-26T14:28:04.973Z,24.60
2017-06-26T14:30:32.782Z,24.90
2017-06-26T14:33:01.049Z,25.60
2017-06-26T14:35:35.032Z,25.50
2017-06-26T14:38:05.757Z,26.00
2017-06-26T14:40:36.746Z,26.30
2017-06-26T14:43:04.240Z,26.40
2017-06-26T14:45:31.752Z,27.30
2017-06-26T14:48:06.136Z,27.50
2017-06-26T14:50:34.730Z,27.40
2017-06-26T14:53:02.246Z,27.30
2017-06-26T14:55:35.843Z,27.40
2017-06-26T14:58:03.355Z,27.20
2017-06-26T15:00:37.328Z,27.10
2017-06-26T15:03:04.831Z,27.30
2017-06-26T15:05:32.309Z,27.20
2017-06-26T15:08:06.004Z,27.20
2017-06-26T15:10:33.491Z,27.80
2017-06-26T15:13:01.328Z,27.70
2017-06-26T15:15:29.566Z,28.00
2017-06-26T15:18:04.861Z,28.00
2017-06-26T15:20:35.457Z,27.70
2017-06-26T15:23:02.930Z,27.50
2017-06-26T15:25:31.757Z,28.80
2017-06-26T15:28:05.218Z,28.80
2017-06-26T15:30:35.568Z,29.50
2017-06-26T15:33:03.053Z,29.40
2017-06-26T15:35:30.567Z,29.50
2017-06-26T15:38:05.035Z,30.10
2017-06-26T15:40:32.518Z,30.00
2017-06-26T15:43:00.001Z,30.10
2017-06-26T15:45:34.818Z,30.20
2017-06-26T15:48:05.302Z,31.10
2017-06-26T15:50:32.789Z,31.20
2017-06-26T15:53:00.272Z,31.40
2017-06-26T15:55:28.531Z,31.30
2017-06-26T15:57:56.385Z,31.20
2017-06-26T16:00:25.183Z,31.30
2017-06-26T16:02:52.678Z,31.60
2017-06-26T16:05:20.493Z,31.60
2017-06-26T16:07:54.724Z,31.50
2017-06-26T16:10:22.520Z,31.80
2017-06-26T16:12:56.123Z,32.10
2017-06-26T16:15:25.228Z,32.10
2017-06-26T16:17:52.735Z,32.10
2017-06-26T16:20:20.248Z,32.40
2017-06-26T16:22:54.498Z,32.40
2017-06-26T16:25:21.981Z,33.10
2017-06-26T16:27:49.774Z,32.90
2017-06-26T16:30:24.545Z,32.80
2017-06-26T16:32:55.788Z,32.70
2017-06-26T16:35:25.041Z,33.00
2017-06-26T16:37:52.576Z,33.00
2017-06-26T16:40:25.936Z,33.10
2017-06-26T16:42:54.870Z,33.10
2017-06-26T16:45:22.662Z,33.10
2017-06-26T16:47:56.700Z,33.10
2017-06-26T16:50:25.365Z,33.50
2017-06-26T16:52:56.153Z,33.60
2017-06-26T16:55:24.657Z,33.50
2017-06-26T16:57:55.182Z,33.70
2017-06-26T17:00:25.743Z,33.80
2017-06-26T17:02:56.726Z,34.00
2017-06-26T17:05:24.233Z,34.10
2017-06-26T17:07:51.732Z,34.30
2017-06-26T17:10:19.229Z,34.50
2017-06-26T17:12:46.709Z,34.70
2017-06-26T17:15:15.915Z,34.80
2017-06-26T17:17:45.262Z,35.20
2017-06-26T17:20:16.161Z,35.20
2017-06-26T17:22:45.508Z,35.50
2017-06-26T17:25:12.976Z,35.90
2017-06-26T17:27:40.460Z,35.90
2017-06-26T17:30:14.983Z,36.10
2017-06-26T17:32:43.665Z,36.50
2017-06-26T17:35:11.213Z,36.50
2017-06-26T17:37:39.461Z,37.70
2017-06-26T17:40:14.458Z,36.90
2017-06-26T17:42:41.955Z,37.30
2017-06-26T17:45:15.879Z,37.70
2017-06-26T17:47:43.348Z,37.90
2017-06-26T17:50:10.846Z,38.00
2017-06-26T17:52:38.330Z,38.10
2017-06-26T17:55:16.040Z,38.00
2017-06-26T17:57:45.102Z,38.30
2017-06-26T18:00:12.590Z,38.00
2017-06-26T18:02:40.078Z,38.20
2017-06-26T18:05:07.575Z,38.20
2017-06-26T18:07:35.071Z,38.10
2017-06-26T18:10:02.821Z,38.40
2017-06-26T18:12:36.264Z,38.60
2017-06-26T18:15:05.374Z,39.10
2017-06-26T18:17:36.617Z,39.00
2017-06-26T18:20:04.105Z,39.10
2017-06-26T18:22:31.603Z,39.30
2017-06-26T18:24:59.072Z,39.40
2017-06-26T18:27:35.154Z,39.70
2017-06-26T18:30:05.667Z,39.60
2017-06-26T18:32:35.589Z,40.00
2017-06-26T18:35:03.834Z,40.10
2017-06-26T18:37:31.308Z,40.10
2017-06-26T18:39:59.564Z,40.40
2017-06-26T18:42:34.329Z,40.40
2017-06-26T18:45:02.909Z,40.50
2017-06-26T18:47:31.154Z,40.40
2017-06-26T18:50:05.355Z,40.30
2017-06-26T18:52:35.973Z,40.70
2017-06-26T18:55:03.457Z,41.00
2017-06-26T18:57:30.949Z,41.30
2017-06-26T18:59:59.217Z,41.80
2017-06-26T19:02:35.190Z,41.70
2017-06-26T19:05:02.673Z,42.00
2017-06-26T19:07:30.154Z,42.20
2017-06-26T19:09:57.965Z,42.30
2017-06-26T19:12:25.437Z,42.60
2017-06-26T19:14:56.517Z,43.10
2017-06-26T19:17:24.271Z,42.90
2017-06-26T19:19:55.482Z,43.10
2017-06-26T19:22:26.268Z,43.20
2017-06-26T19:24:53.767Z,43.30
2017-06-26T19:27:24.902Z,43.50
2017-06-26T19:29:52.412Z,43.60
2017-06-26T19:32:19.894Z,43.80
2017-06-26T19:34:47.364Z,43.90
2017-06-26T19:37:15.148Z,44.20
2017-06-26T19:39:42.621Z,44.30
2017-06-26T19:42:16.799Z,44.40
2017-06-26T19:44:45.398Z,44.40
2017-06-26T19:47:15.901Z,44.80
2017-06-26T19:49:43.380Z,45.00
2017-06-26T19:52:16.825Z,45.20
2017-06-26T19:54:44.619Z,45.40
2017-06-26T19:57:15.159Z,45.40
2017-06-26T19:59:42.644Z,45.50
2017-06-26T20:02:17.226Z,45.80
2017-06-26T20:04:44.810Z,45.70
2017-06-26T20:07:15.435Z,45.90
2017-06-26T20:09:42.915Z,46.00
2017-06-26T20:12:11.158Z,46.20
2017-06-26T20:14:45.083Z,46.20
2017-06-26T20:17:12.558Z,46.40
2017-06-26T20:19:46.427Z,46.50
2017-06-26T20:22:13.909Z,46.60
2017-06-26T20:24:47.594Z,46.60
2017-06-26T20:27:24.765Z,46.70
2017-06-26T20:29:52.581Z,47.00
2017-06-26T20:32:20.837Z,47.20
2017-06-26T20:34:48.305Z,47.10
2017-06-26T20:37:15.790Z,47.20
2017-06-26T20:39:46.206Z,47.80
2017-06-26T20:42:14.064Z,47.40
2017-06-26T20:44:41.547Z,47.40
2017-06-26T20:47:15.939Z,47.40
2017-06-26T20:49:45.403Z,47.50
2017-06-26T20:52:16.402Z,47.40
2017-06-26T20:54:43.889Z,47.70
2017-06-26T20:57:11.366Z,47.70
2017-06-26T20:59:38.850Z,47.80
2017-06-26T21:02:06.347Z,48.00
2017-06-26T21:04:35.328Z,48.00
2017-06-26T21:07:06.510Z,48.10
2017-06-26T21:09:33.991Z,48.40
2017-06-26T21:12:01.474Z,48.30
2017-06-26T21:14:28.946Z,48.40
2017-06-26T21:16:56.830Z,48.50
2017-06-26T21:19:24.315Z,48.40
2017-06-26T21:21:51.797Z,48.50
2017-06-26T21:24:19.273Z,48.60
2017-06-26T21:26:54.913Z,48.70
2017-06-26T21:29:23.500Z,49.40
2017-06-26T21:31:57.122Z,48.80
2017-06-26T21:34:24.927Z,48.90
2017-06-26T21:36:55.457Z,49.00
2017-06-26T21:39:26.441Z,49.00
2017-06-26T21:41:53.919Z,49.40
2017-06-26T21:44:21.406Z,49.50
2017-06-26T21:46:48.893Z,49.50
2017-06-26T21:49:26.144Z,49.80
2017-06-26T21:51:53.975Z,49.90
2017-06-26T21:54:21.441Z,49.90
2017-06-26T21:56:48.932Z,50.00
2017-06-26T21:59:24.837Z,50.00
2017-06-26T22:01:52.305Z,50.10
2017-06-26T22:04:20.175Z,50.20
2017-06-26T22:06:54.418Z,50.20
2017-06-26T22:09:22.174Z,50.30
2017-06-26T22:11:55.427Z,50.40
2017-06-26T22:14:23.175Z,50.50
2017-06-26T22:16:50.654Z,50.40
2017-06-26T22:19:18.910Z,51.00
2017-06-26T22:21:46.388Z,50.90
2017-06-26T22:24:15.577Z,51.10
2017-06-26T22:26:46.442Z,51.10
2017-06-26T22:29:13.930Z,51.30
2017-06-26T22:31:41.405Z,51.20
2017-06-26T22:34:14.682Z,51.20
2017-06-26T22:36:42.165Z,51.40
2017-06-26T22:39:09.961Z,51.40
2017-06-26T22:41:44.321Z,51.30
2017-06-26T22:44:15.433Z,51.40
2017-06-26T22:46:42.921Z,51.50
2017-06-26T22:49:17.204Z,51.70
2017-06-26T22:51:45.441Z,51.80
2017-06-26T22:54:12.916Z,51.80
2017-06-26T22:56:40.415Z,51.80
2017-06-26T22:59:07.899Z,51.80
2017-06-26T23:01:35.730Z,52.00
2017-06-26T23:04:03.209Z,52.20
2017-06-26T23:06:30.685Z,52.10
2017-06-26T23:08:58.277Z,52.00
2017-06-26T23:11:35.487Z,52.10
2017-06-26T23:14:03.324Z,52.10
2017-06-26T23:16:30.801Z,52.70
2017-06-26T23:18:59.033Z,52.00
2017-06-26T23:21:26.530Z,52.00
2017-06-26T23:23:54.005Z,52.00
2017-06-26T23:26:25.453Z,52.00
2017-06-26T23:28:56.553Z,52.00
2017-06-26T23:31:24.028Z,52.00
2017-06-26T23:33:54.646Z,52.20
2017-06-26T23:36:22.137Z,52.30
2017-06-26T23:38:49.891Z,52.30
2017-06-26T23:41:17.360Z,52.30
2017-06-26T23:43:54.856Z,52.30
2017-06-26T23:46:22.347Z,52.50
2017-06-26T23:48:56.114Z,52.50
2017-06-26T23:51:25.589Z,53.20
2017-06-26T23:53:56.571Z,53.20
2017-06-26T23:56:24.046Z,53.60
2017-06-26T23:58:51.583Z,53.90
